This is the latest recevied weather packets stored in our database for station/object WV8BRW. If no packets are shown the sender has not sent any weather packets the latest 10 day(s).
| Time | Temp. | Humidity | Pressure | Rain* | Wind** | Luminosity | Snow |
|---|---|---|---|---|---|---|---|
| 1777907810 | 17.78° C | 80% | 1011.4 hPa | 0 mm | - | 449 W/m² | - |
| 1777907505 | 17.22° C | 80% | 1011.8 hPa | 0 mm | - | 294 W/m² | - |
| 1777907202 | 16.67° C | 78% | 1011.7 hPa | 0 mm | - | 474 W/m² | - |
| 1777906898 | 16.11° C | 80% | 1012.1 hPa | 0 mm | - | 263 W/m² | - |
| 1777906596 | 16.11° C | 83% | 1011.8 hPa | 0 mm | - | 260 W/m² | - |
| 1777906291 | 15.56° C | 84% | 1011.9 hPa | 0 mm | - | 267 W/m² | - |
| 1777905988 | 15° C | 84% | 1011.8 hPa | 0 mm | - | 259 W/m² | - |
| 1777905685 | 15° C | 83% | 1011.9 hPa | 0 mm | - | 245 W/m² | - |
| 1777905382 | 14.44° C | 90% | 1011.8 hPa | 0 mm | - | 290 W/m² | - |
| 1777905080 | 13.89° C | 90% | 1011.8 hPa | 0 mm | - | 242 W/m² | - |
| 1777904777 | 13.33° C | 90% | 1012 hPa | 0 mm | - | 198 W/m² | - |
| 1777904474 | 13.33° C | 90% | 1012.1 hPa | 0 mm | - | 179 W/m² | - |
| 1777904170 | 13.33° C | 91% | 1012.4 hPa | 0 mm | - | 165 W/m² | - |
| 1777903868 | 12.78° C | 93% | 1012.4 hPa | 0 mm | - | 188 W/m² | - |
| 1777903564 | 12.78° C | 93% | 1012.2 hPa | 0 mm | - | 206 W/m² | - |
| 1777903260 | 12.22° C | 92% | 1012.4 hPa | 0 mm | - | 165 W/m² | - |
| 1777902956 | 12.22° C | 91% | 1012.4 hPa | 0 mm | - | 85 W/m² | - |
| 1777902653 | 12.78° C | 86% | 1012.6 hPa | 1.27 mm | - | 60 W/m² | - |
| 1777902350 | 13.33° C | 82% | 1012.9 hPa | 1.27 mm | - | 44 W/m² | - |
| 1777902047 | 13.89° C | 79% | 1012.6 hPa | 0 mm | - | 32 W/m² | - |
| 1777901746 | 13.89° C | 76% | 1012.5 hPa | 0 mm | - | 92 W/m² | - |
| 1777901443 | 13.89° C | 78% | 1012.3 hPa | 0 mm | - | 107 W/m² | - |
| 1777901140 | 13.89° C | 77% | 1012.4 hPa | 0 mm | - | 129 W/m² | - |
| 1777900838 | 13.89° C | 76% | 1012.5 hPa | 0 mm | - | 65 W/m² | - |
| 1777900535 | 13.89° C | 75% | 1012.5 hPa | 0 mm | - | 117 W/m² | - |
* Rain latest hour (hover to see other rain measurements)
** Current wind speed in m/s (hover to see current wind gust speed)